• Join FlightAware (Why Join?)
  • Login
  • US Flag 
01:55PM EDT


 

Airport Tracker/Info


-or-


 

Live Flight TrackerFlight Track Log ✈ KCE2 ✈ 09-May-2013 ✈ CYQB - CYSJ

Flight Track Log - Related Links

Times and Time Zones

All times are in EDT time to prevent confusion due to time zone crossing. See the KCE2 flight status page for this flight to view local times or setup timezone preferences in your user account.

Time Position Orientation Groundspeed Altitude Reporting Facility
EDT Latitude Longitude Course Direction KTS MPH feet Rate Location/Type
10:58PM 46.7880 -71.3990 224° Southwest 166 191 400  Level FlightAware
10:59PM 46.7710 -71.4230 224° Southwest 177 204 2,200 3,600 Climbing FlightAware
10:59PM 46.7540 -71.4410 216° Southwest 200 230 3,700 3,420 Climbing FlightAware
10:59PM 46.7360 -71.4330 163° South 221 254 4,800 3,000 Climbing FlightAware
10:59PM 46.7290 -71.4210 130° Southeast 240 276 5,200 2,400 Climbing FlightAware
11:00PM 46.7160 -71.3690 110° East 300 345 6,400 2,940 Climbing FlightAware
11:00PM 46.7050 -71.3200 108° East 326 375 7,900 3,720 Climbing FlightAware
11:01PM 46.6970 -71.2880 110° East 334 384 8,900 4,140 Climbing FlightAware
11:01PM 46.6750 -71.2020 110° East 349 402 11,700 4,020 Climbing FlightAware
11:02PM 46.6490 -71.1010 111° Southeast 360 414 14,600 3,720 Climbing FlightAware
11:03PM 46.6260 -71.0100 110° East 369 425 17,000 3,480 Climbing FlightAware
11:03PM 46.5980 -70.9050 111° Southeast 375 432 19,600 3,420 Climbing FlightAware
11:04PM 46.5740 -70.8120 111° Southeast 376 433 21,900 3,240 Climbing FlightAware
11:05PM 46.5460 -70.7060 111° Southeast 383 441 24,200 2,820 Climbing FlightAware
11:06PM 46.5200 -70.6080 111° Southeast 392 451 25,900 2,520 Climbing FlightAware
11:06PM 46.4900 -70.4980 112° Southeast 398 458 27,800 2,520 Climbing FlightAware
11:07PM 46.4630 -70.3980 111° Southeast 399 459 29,500 2,280 Climbing FlightAware
11:08PM 46.4370 -70.2990 111° Southeast 408 470 30,900 2,040 Climbing FlightAware
11:08PM 46.4060 -70.1840 111° Southeast 412 474 32,400 1,920 Climbing FlightAware
11:09PM 46.3780 -70.0820 112° Southeast 413 475 33,700 1,920 Climbing FlightAware
11:10PM 46.3470 -69.9670 111° Southeast 412 474 35,200 1,500 Climbing FlightAware
11:10PM 46.3230 -69.8820 112° Southeast 420 483 35,900 1,020 Climbing FlightAware
11:11PM 46.2890 -69.7580 112° Southeast 433 498 36,600 780 Climbing FlightAware
11:12PM 46.2590 -69.6480 111° Southeast 446 513 37,000 240 Climbing FlightAware
11:13PM 46.2230 -69.5230 113° Southeast 462 532 37,000  Level FlightAware
11:13PM 46.1900 -69.4090 113° Southeast 466 536 37,000  Level FlightAware
11:14PM 46.1530 -69.2800 112° Southeast 467 537 37,000  Level FlightAware
11:15PM 46.1190 -69.1650 113° Southeast 468 539 37,000  Level FlightAware
11:15PM 46.0830 -69.0380 112° Southeast 465 535 37,000  Level FlightAware
11:16PM 46.0550 -68.9440 113° Southeast 463 533 37,000  Level FlightAware
11:17PM 46.0120 -68.7980 113° Southeast 460 529 37,000  Level FlightAware
11:18PM 45.9710 -68.6610 113° Southeast 459 528 37,000  Level FlightAware
11:18PM 45.9340 -68.5350 113° Southeast 456 525 37,000 -120 Level FlightAware
11:19PM 45.9050 -68.4380 113° Southeast 456 525 36,900 -960 Descending FlightAware
11:20PM 45.8640 -68.3040 114° Southeast 453 521 35,700 -1,920 Descending FlightAware
11:20PM 45.8310 -68.1940 113° Southeast 458 527 34,100 -2,280 Descending FlightAware
11:21PM 45.7940 -68.0720 113° Southeast 455 524 32,500 -2,340 Descending FlightAware
11:22PM 45.7600 -67.9590 113° Southeast 453 521 30,800 -2,700 Descending FlightAware
11:23PM 45.7230 -67.8390 114° Southeast 454 522 28,700 -2,700 Descending FlightAware
11:23PM 45.6920 -67.7380 114° Southeast 450 518 27,000 -2,820 Descending FlightAware
11:24PM 45.6560 -67.6220 114° Southeast 437 503 25,000 -2,700 Descending FlightAware
11:25PM 45.6280 -67.5310 114° Southeast 424 488 23,400 -2,880 Descending FlightAware
11:25PM 45.5890 -67.4060 114° Southeast 424 488 21,000 -2,880 Descending FlightAware
11:26PM 45.5570 -67.3060 115° Southeast 405 466 19,400 -2,220 Descending FlightAware
11:27PM 45.5230 -67.1970 114° Southeast 404 465 17,900 -1,980 Descending FlightAware
11:27PM 45.4930 -67.1010 114° Southeast 399 459 16,600 -1,980 Descending FlightAware
11:28PM 45.4590 -66.9940 114° Southeast 392 451 15,100 -1,980 Descending FlightAware
11:29PM 45.4290 -66.8990 114° Southeast 387 445 13,800 -1,920 Descending FlightAware
11:30PM 45.4000 -66.8080 114° Southeast 384 442 12,600 -1,860 Descending FlightAware
11:30PM 45.3750 -66.7300 115° Southeast 379 436 11,500 -1,860 Descending FlightAware
11:31PM 45.3270 -66.5810 115° Southeast 364 419 9,500 -1,920 Descending FlightAware
11:31PM 45.3160 -66.5480 115° Southeast 360 414 9,000 -1,680 Descending FlightAware
11:32PM 45.3000 -66.4990 115° Southeast 335 386 8,400 -1,680 Descending FlightAware
11:32PM 45.2810 -66.4380 114° Southeast 320 368 7,500 -1,680 Descending FlightAware
11:33PM 45.2660 -66.3930 115° Southeast 315 362 6,900 -1,860 Descending FlightAware
11:33PM 45.2470 -66.3350 115° Southeast 312 359 5,800 -2,100 Descending FlightAware
11:33PM 45.2410 -66.3160 114° Southeast 312 359 5,500 -840 Descending FlightAware
11:34PM 45.2220 -66.2580 115° Southeast 312 359 5,200 -2,100 Descending FlightAware
11:35PM 45.1833 -66.1500 115° Southeast 310 357 2,700 -1,800 Descending Moncton Center
11:36PM 45.1500 -66.0833 125° Southeast 260 299 2,100 -300 Descending Moncton Center
11:37PM 45.1667 -65.9833 77° East 220 253 2,200  Climbing Moncton Center
11:38PM 45.2167 -65.9667 13° North 200 230 2,100 -600 Descending Moncton Center
11:39PM 45.2667 -65.9167 35° Northeast 190 219 1,100 -1,020 Descending Moncton Center